createdAt,value
2019-05-23T00:00:56.459Z,11.00
2019-05-23T00:03:28.391Z,8.87
2019-05-23T00:06:04.355Z,8.73
2019-05-23T00:08:34.159Z,8.23
2019-05-23T00:11:22.186Z,8.50
2019-05-23T00:14:00.363Z,8.27
2019-05-23T00:16:31.071Z,10.20
2019-05-23T00:19:02.368Z,9.67
2019-05-23T00:21:32.915Z,8.87
2019-05-23T00:24:03.847Z,8.10
2019-05-23T00:26:34.528Z,10.03
2019-05-23T00:29:10.184Z,8.63
2019-05-23T00:31:40.108Z,9.17
2019-05-23T00:34:11.031Z,11.63
2019-05-23T00:36:41.893Z,8.60
2019-05-23T00:39:11.797Z,8.97
2019-05-23T00:41:41.196Z,8.43
2019-05-23T00:44:11.546Z,9.00
2019-05-23T00:46:41.160Z,11.03
2019-05-23T00:49:11.700Z,8.87
2019-05-23T00:51:41.658Z,8.77
2019-05-23T00:54:11.318Z,10.60
2019-05-23T00:56:41.805Z,10.13
2019-05-23T00:59:25.847Z,12.07
2019-05-23T01:01:43.025Z,10.97
2019-05-23T01:04:13.716Z,9.97
2019-05-23T01:06:44.325Z,10.97
2019-05-23T01:09:13.429Z,9.70
2019-05-23T01:11:44.164Z,10.17
2019-05-23T01:14:14.060Z,9.30
2019-05-23T01:16:43.517Z,9.70
2019-05-23T01:19:12.588Z,9.67
2019-05-23T01:21:59.423Z,15.73
2019-05-23T01:24:40.077Z,11.13
2019-05-23T01:27:10.297Z,11.60
2019-05-23T01:29:43.112Z,11.87
2019-05-23T01:32:22.357Z,11.17
2019-05-23T01:34:52.545Z,10.90
2019-05-23T01:37:21.650Z,11.43
2019-05-23T01:39:50.734Z,10.90
2019-05-23T01:42:20.494Z,12.80
2019-05-23T01:44:49.581Z,12.10
2019-05-23T01:47:20.102Z,12.07
2019-05-23T01:49:49.945Z,15.40
2019-05-23T01:52:19.943Z,11.70
2019-05-23T01:54:49.166Z,12.90
2019-05-23T01:57:18.574Z,13.13
2019-05-23T01:59:48.243Z,12.87
2019-05-23T02:02:19.187Z,13.03
2019-05-23T02:04:48.382Z,12.47
2019-05-23T02:07:18.140Z,14.27
2019-05-23T02:09:47.298Z,15.03
2019-05-23T02:12:17.887Z,13.17
2019-05-23T02:14:49.583Z,15.77
2019-05-23T02:17:19.478Z,13.67
2019-05-23T02:19:48.758Z,12.50
2019-05-23T02:22:18.015Z,14.73
2019-05-23T02:24:48.476Z,13.77
2019-05-23T02:27:17.903Z,14.37
2019-05-23T02:29:47.326Z,13.57
2019-05-23T02:32:17.654Z,13.37
2019-05-23T02:34:47.335Z,14.67
2019-05-23T02:37:29.036Z,13.87
2019-05-23T02:40:04.818Z,13.70
2019-05-23T02:42:42.376Z,15.87
2019-05-23T02:45:18.858Z,13.17
2019-05-23T02:47:53.071Z,13.07
2019-05-23T02:50:28.488Z,12.00
2019-05-23T02:52:59.747Z,11.93
2019-05-23T02:55:34.467Z,12.30
2019-05-23T02:58:15.263Z,12.57
2019-05-23T03:00:55.803Z,13.73
2019-05-23T03:03:29.236Z,13.50
2019-05-23T03:06:00.848Z,16.43
2019-05-23T03:08:31.787Z,12.43
2019-05-23T03:11:19.323Z,13.00
2019-05-23T03:13:49.881Z,14.30
2019-05-23T03:16:24.313Z,12.77
2019-05-23T03:18:59.804Z,14.13
2019-05-23T03:21:30.867Z,14.70
2019-05-23T03:24:02.600Z,15.10
2019-05-23T03:27:12.600Z,13.90
2019-05-23T03:29:41.469Z,17.40
2019-05-23T03:32:38.696Z,12.70
2019-05-23T03:35:24.053Z,14.00
2019-05-23T03:37:53.700Z,14.63
2019-05-23T03:40:23.789Z,16.53
2019-05-23T03:42:53.355Z,13.23
2019-05-23T03:45:26.433Z,14.07
2019-05-23T03:47:55.897Z,15.83
2019-05-23T03:50:26.129Z,16.73
2019-05-23T03:52:56.768Z,12.93
2019-05-23T03:55:28.217Z,15.67
2019-05-23T03:57:57.536Z,16.33
2019-05-23T04:00:29.827Z,13.23
2019-05-23T04:02:58.926Z,13.20
2019-05-23T04:05:29.407Z,16.03
2019-05-23T04:08:00.205Z,13.37
2019-05-23T04:10:29.612Z,16.30
2019-05-23T04:12:58.997Z,15.33
2019-05-23T04:15:28.542Z,15.73
2019-05-23T04:17:57.854Z,15.40
2019-05-23T04:20:26.969Z,17.23
2019-05-23T04:22:56.878Z,13.53
2019-05-23T04:25:26.621Z,16.07
2019-05-23T04:27:56.368Z,13.23
2019-05-23T04:30:25.341Z,14.30
2019-05-23T04:32:54.586Z,13.57
2019-05-23T04:35:24.024Z,13.37
2019-05-23T04:37:53.356Z,14.40
2019-05-23T04:40:22.590Z,14.00
2019-05-23T04:42:51.716Z,16.67
2019-05-23T04:45:21.431Z,12.80
2019-05-23T04:47:50.941Z,12.83
2019-05-23T04:50:21.208Z,15.40
2019-05-23T04:52:50.601Z,13.00
2019-05-23T04:55:19.736Z,16.27
2019-05-23T04:57:49.328Z,12.83
2019-05-23T05:00:19.619Z,13.60
2019-05-23T05:02:48.747Z,13.37
2019-05-23T05:05:19.013Z,12.47
2019-05-23T05:07:48.035Z,12.57
2019-05-23T05:10:20.175Z,12.83
2019-05-23T05:12:49.412Z,11.73
2019-05-23T05:15:18.580Z,13.80
2019-05-23T05:17:48.603Z,13.17
2019-05-23T05:20:17.995Z,15.43
2019-05-23T05:22:47.675Z,13.77
2019-05-23T05:25:17.635Z,14.87
2019-05-23T05:27:47.230Z,12.33
2019-05-23T05:30:17.440Z,13.70
2019-05-23T05:32:46.828Z,14.07
2019-05-23T05:35:16.415Z,18.03
2019-05-23T05:37:45.488Z,18.13
2019-05-23T05:40:14.971Z,13.50
2019-05-23T05:42:45.976Z,16.07
2019-05-23T05:45:16.170Z,13.40
2019-05-23T05:47:45.284Z,13.63
2019-05-23T05:50:14.791Z,14.17
2019-05-23T05:52:43.895Z,14.27
2019-05-23T05:55:13.292Z,13.73
2019-05-23T05:57:42.661Z,14.73
2019-05-23T06:00:24.965Z,16.87
2019-05-23T06:03:04.203Z,15.27
2019-05-23T06:05:34.130Z,14.77
2019-05-23T06:08:03.604Z,15.27
2019-05-23T06:10:33.117Z,14.83
2019-05-23T06:13:02.985Z,15.37
2019-05-23T06:15:33.492Z,15.13
2019-05-23T06:18:02.454Z,16.03
2019-05-23T06:20:31.726Z,16.90
2019-05-23T06:23:01.420Z,15.80
2019-05-23T06:25:30.533Z,16.27
2019-05-23T06:28:01.095Z,15.33
2019-05-23T06:30:32.846Z,15.23
2019-05-23T06:33:21.331Z,17.00
2019-05-23T06:35:34.036Z,16.27
2019-05-23T06:38:03.340Z,17.53
2019-05-23T06:40:33.105Z,16.13
2019-05-23T06:43:02.166Z,24.57
2019-05-23T06:45:31.481Z,16.27
2019-05-23T06:48:00.746Z,18.37
2019-05-23T06:50:30.533Z,23.10
2019-05-23T06:52:59.594Z,16.77
2019-05-23T06:55:28.886Z,16.83
2019-05-23T06:57:58.122Z,17.30
2019-05-23T07:00:28.705Z,17.50
2019-05-23T07:02:57.861Z,17.57
2019-05-23T07:05:32.146Z,16.77
2019-05-23T07:08:01.921Z,17.93
2019-05-23T07:10:31.162Z,18.43
2019-05-23T07:13:00.275Z,17.53
2019-05-23T07:15:29.506Z,18.97
2019-05-23T07:18:00.150Z,18.07
2019-05-23T07:20:29.354Z,17.60
2019-05-23T07:22:58.896Z,18.03
2019-05-23T07:25:28.340Z,16.03
2019-05-23T07:27:57.671Z,16.53
2019-05-23T07:30:27.299Z,16.83
2019-05-23T07:32:56.996Z,16.67
2019-05-23T07:35:26.632Z,16.87
2019-05-23T07:37:55.797Z,18.23
2019-05-23T07:40:26.731Z,15.20
2019-05-23T07:42:55.946Z,17.93
2019-05-23T07:45:30.434Z,15.47
2019-05-23T07:48:00.079Z,15.97
2019-05-23T07:50:29.057Z,14.90
2019-05-23T07:52:59.039Z,16.07
2019-05-23T07:55:41.292Z,16.40
2019-05-23T07:58:13.613Z,14.80
2019-05-23T08:00:48.357Z,15.93
2019-05-23T08:03:18.080Z,15.30
2019-05-23T08:05:47.431Z,16.03
2019-05-23T08:08:17.686Z,17.00
2019-05-23T08:10:47.130Z,15.77
2019-05-23T08:13:16.140Z,18.17
2019-05-23T08:15:46.058Z,18.47
2019-05-23T08:18:15.768Z,17.47
2019-05-23T08:20:46.899Z,23.03
2019-05-23T08:23:17.007Z,19.83
2019-05-23T08:25:46.385Z,20.37
2019-05-23T08:28:15.527Z,19.60
2019-05-23T08:30:45.048Z,20.10
2019-05-23T08:33:15.589Z,18.60
2019-05-23T08:35:46.083Z,19.60
2019-05-23T08:38:15.567Z,18.67
2019-05-23T08:40:45.472Z,18.37
2019-05-23T08:43:14.695Z,16.63
2019-05-23T08:45:44.472Z,16.77
2019-05-23T08:48:13.993Z,16.17
2019-05-23T08:50:43.138Z,15.50
2019-05-23T08:53:12.395Z,16.20
2019-05-23T08:55:41.596Z,17.33
2019-05-23T08:58:12.068Z,17.30
2019-05-23T09:00:42.909Z,19.03
2019-05-23T09:03:12.703Z,18.27
2019-05-23T09:05:43.503Z,18.10
2019-05-23T09:08:16.703Z,16.47
2019-05-23T09:10:44.271Z,16.42
2019-05-23T09:13:13.526Z,12.03
2019-05-23T09:15:42.617Z,11.20
2019-05-23T09:18:12.796Z,12.03
2019-05-23T09:20:41.896Z,11.63
2019-05-23T09:23:12.028Z,11.12
2019-05-23T09:25:41.120Z,10.93
2019-05-23T09:28:11.710Z,10.53
2019-05-23T09:30:41.254Z,9.35
2019-05-23T09:33:10.741Z,9.83
2019-05-23T09:35:39.956Z,10.60
2019-05-23T09:38:08.941Z,11.15
2019-05-23T09:40:38.101Z,10.68
2019-05-23T09:43:07.809Z,10.25
2019-05-23T09:45:37.455Z,9.75
2019-05-23T09:48:06.914Z,10.05
2019-05-23T09:50:36.141Z,8.80
2019-05-23T09:53:05.293Z,7.75
2019-05-23T09:55:35.571Z,8.08
2019-05-23T09:58:04.853Z,7.70
2019-05-23T10:00:35.676Z,7.15
2019-05-23T10:03:07.012Z,9.35
2019-05-23T10:05:43.357Z,8.55
2019-05-23T10:08:07.423Z,7.60
2019-05-23T10:10:36.502Z,7.87
2019-05-23T10:13:05.737Z,34.43
2019-05-23T10:15:45.158Z,7.40
2019-05-23T10:18:18.122Z,10.08
2019-05-23T10:20:47.242Z,6.92
2019-05-23T10:23:16.318Z,7.45
2019-05-23T10:25:45.851Z,6.10
2019-05-23T10:28:15.408Z,6.85
2019-05-23T10:30:44.586Z,6.03
2019-05-23T10:33:13.802Z,5.60
2019-05-23T10:35:58.903Z,6.45
2019-05-23T10:38:13.721Z,6.47
2019-05-23T10:40:42.921Z,4.78
2019-05-23T10:43:12.558Z,8.45
2019-05-23T10:45:41.654Z,6.33
2019-05-23T10:48:11.783Z,7.20
2019-05-23T10:50:44.919Z,8.08
2019-05-23T10:53:12.494Z,7.58
2019-05-23T10:55:41.882Z,8.65
2019-05-23T10:58:12.027Z,8.63
2019-05-23T11:00:42.822Z,8.15
2019-05-23T11:03:13.451Z,8.20
2019-05-23T11:05:43.618Z,8.43
2019-05-23T11:08:12.812Z,9.03
2019-05-23T11:10:42.412Z,8.88
2019-05-23T11:13:11.466Z,9.00
2019-05-23T11:15:40.623Z,8.55
2019-05-23T11:18:11.110Z,8.15
2019-05-23T11:20:41.242Z,7.67
2019-05-23T11:23:12.089Z,7.78
2019-05-23T11:25:41.188Z,7.72
2019-05-23T11:28:10.220Z,7.58
2019-05-23T11:30:51.711Z,8.68
2019-05-23T11:33:21.693Z,9.85
2019-05-23T11:35:51.672Z,8.75
2019-05-23T11:38:21.208Z,7.92
2019-05-23T11:40:50.831Z,7.28
2019-05-23T11:43:20.652Z,6.85
2019-05-23T11:46:09.188Z,8.98
2019-05-23T11:48:38.763Z,6.60
2019-05-23T11:51:07.880Z,6.65
2019-05-23T11:53:37.167Z,7.00
2019-05-23T11:56:06.247Z,5.50
2019-05-23T11:58:35.720Z,7.83
2019-05-23T12:01:20.950Z,7.33
2019-05-23T12:03:49.508Z,6.37
2019-05-23T12:06:18.784Z,5.80
2019-05-23T12:08:47.900Z,5.30
2019-05-23T12:11:18.028Z,6.67
2019-05-23T12:13:47.085Z,5.72
2019-05-23T12:16:16.733Z,5.90
2019-05-23T12:18:45.847Z,6.42
2019-05-23T12:21:15.453Z,7.95
2019-05-23T12:23:44.552Z,6.12
2019-05-23T12:26:14.200Z,7.92
2019-05-23T12:28:43.261Z,6.22
2019-05-23T12:31:12.886Z,6.03
2019-05-23T12:33:42.064Z,5.90
2019-05-23T12:36:13.241Z,6.87
2019-05-23T12:38:42.393Z,7.83
2019-05-23T12:41:13.117Z,8.75
2019-05-23T12:43:42.176Z,7.15
2019-05-23T12:46:11.283Z,7.85
2019-05-23T12:48:53.413Z,9.75
2019-05-23T12:51:24.462Z,9.80
2019-05-23T12:53:53.631Z,7.28
2019-05-23T12:56:23.013Z,7.90
2019-05-23T12:58:52.488Z,7.35
2019-05-23T13:01:22.535Z,6.47
2019-05-23T13:03:51.621Z,7.17
2019-05-23T13:06:20.877Z,6.58
2019-05-23T13:08:50.277Z,7.22
2019-05-23T13:11:19.438Z,6.67
2019-05-23T13:13:48.530Z,8.08
2019-05-23T13:16:17.629Z,7.97
2019-05-23T13:18:46.669Z,6.70
2019-05-23T13:21:15.897Z,6.62
2019-05-23T13:23:45.215Z,6.95
2019-05-23T13:26:14.385Z,8.20
2019-05-23T13:28:43.438Z,7.90
2019-05-23T13:31:12.405Z,8.68
2019-05-23T13:33:41.729Z,7.62
2019-05-23T13:36:10.961Z,7.78
2019-05-23T13:38:40.438Z,8.20
2019-05-23T13:41:10.118Z,7.50
2019-05-23T13:43:39.176Z,8.18
2019-05-23T13:46:08.989Z,8.50
2019-05-23T13:48:38.161Z,7.55
2019-05-23T13:51:07.445Z,8.58
2019-05-23T13:53:36.612Z,9.23
2019-05-23T13:56:06.019Z,8.33
2019-05-23T13:58:35.531Z,7.47
2019-05-23T14:01:09.263Z,8.50
2019-05-23T14:03:36.520Z,8.15
2019-05-23T14:06:07.252Z,8.40
2019-05-23T14:08:36.320Z,9.20
2019-05-23T14:11:06.766Z,8.75
2019-05-23T14:13:36.007Z,9.05
2019-05-23T14:16:05.823Z,8.33
2019-05-23T14:18:35.983Z,7.87
2019-05-23T14:21:05.497Z,8.20
2019-05-23T14:23:34.683Z,7.12
2019-05-23T14:26:05.259Z,8.65
2019-05-23T14:28:34.527Z,8.18
2019-05-23T14:31:07.907Z,8.48
2019-05-23T14:33:54.975Z,8.55
2019-05-23T14:36:38.310Z,7.80
2019-05-23T14:39:12.088Z,7.55
2019-05-23T14:41:48.892Z,7.53
2019-05-23T14:44:17.948Z,7.97
2019-05-23T14:47:04.919Z,7.83
2019-05-23T14:49:38.483Z,8.35
2019-05-23T14:52:16.216Z,8.58
2019-05-23T14:54:52.336Z,7.83
2019-05-23T14:57:22.044Z,8.85
2019-05-23T14:59:51.547Z,7.78
2019-05-23T15:02:21.807Z,7.10
2019-05-23T15:04:50.850Z,6.97
2019-05-23T15:07:20.547Z,7.45
2019-05-23T15:09:49.540Z,8.35
2019-05-23T15:12:19.241Z,9.18
2019-05-23T15:14:48.472Z,10.58
2019-05-23T15:17:17.689Z,8.70
2019-05-23T15:19:47.149Z,7.92
2019-05-23T15:22:16.344Z,9.90
2019-05-23T15:24:45.790Z,9.05
2019-05-23T15:27:15.253Z,9.00
2019-05-23T15:29:44.400Z,8.75
2019-05-23T15:32:13.684Z,6.47
2019-05-23T15:34:42.996Z,7.30
2019-05-23T15:37:12.833Z,7.40
2019-05-23T15:39:41.909Z,6.80
2019-05-23T15:42:11.204Z,6.78
2019-05-23T15:44:40.138Z,8.85
2019-05-23T15:47:09.568Z,9.75
2019-05-23T15:49:40.177Z,7.50
2019-05-23T15:52:28.261Z,7.75
2019-05-23T15:55:23.217Z,6.22
2019-05-23T15:58:00.986Z,6.00
2019-05-23T16:00:55.511Z,8.28
2019-05-23T16:03:42.299Z,6.35
2019-05-23T16:06:15.043Z,6.35
2019-05-23T16:08:44.982Z,7.15
2019-05-23T16:11:17.420Z,6.72
2019-05-23T16:13:45.318Z,5.90
2019-05-23T16:16:14.355Z,5.60
2019-05-23T16:18:44.373Z,6.85
2019-05-23T16:21:13.599Z,6.97
2019-05-23T16:23:42.679Z,6.37
2019-05-23T16:26:12.137Z,5.95
2019-05-23T16:28:41.230Z,7.15
2019-05-23T16:31:10.430Z,7.05
2019-05-23T16:33:39.450Z,6.90
2019-05-23T16:36:08.638Z,8.80
2019-05-23T16:38:37.608Z,7.00
2019-05-23T16:41:06.931Z,6.78
2019-05-23T16:43:36.414Z,6.07
2019-05-23T16:46:05.411Z,7.37
2019-05-23T16:48:34.866Z,7.83
2019-05-23T16:51:03.918Z,7.10
2019-05-23T16:53:35.935Z,7.78
2019-05-23T16:56:13.127Z,5.72
2019-05-23T16:59:04.659Z,5.65
2019-05-23T17:01:55.548Z,7.20
2019-05-23T17:04:25.702Z,7.33
2019-05-23T17:07:03.578Z,8.25
2019-05-23T17:10:06.720Z,8.95
2019-05-23T17:12:27.083Z,6.15
2019-05-23T17:15:00.958Z,7.50
2019-05-23T17:18:02.958Z,6.47
2019-05-23T17:20:54.407Z,6.57
2019-05-23T17:23:37.634Z,7.53
2019-05-23T17:26:12.023Z,9.48
2019-05-23T17:28:43.974Z,8.55
2019-05-23T17:31:15.617Z,7.47
2019-05-23T17:33:45.538Z,7.87
2019-05-23T17:36:15.163Z,7.77
2019-05-23T17:38:44.407Z,5.15
2019-05-23T17:41:14.072Z,6.07
2019-05-23T17:43:43.030Z,7.10
2019-05-23T17:46:12.243Z,7.13
2019-05-23T17:48:41.419Z,7.03
2019-05-23T17:51:10.600Z,5.93
2019-05-23T17:53:39.820Z,6.27
2019-05-23T17:56:09.139Z,7.83
2019-05-23T17:58:38.124Z,5.90
2019-05-23T18:01:08.224Z,8.55
2019-05-23T18:03:37.811Z,6.33
2019-05-23T18:06:07.548Z,8.77
2019-05-23T18:08:37.658Z,7.50
2019-05-23T18:11:06.704Z,6.50
2019-05-23T18:13:35.851Z,7.47
2019-05-23T18:16:05.728Z,9.87
2019-05-23T18:18:34.779Z,10.03
2019-05-23T18:21:06.516Z,8.28
2019-05-23T18:23:35.640Z,6.75
2019-05-23T18:26:06.897Z,6.37
2019-05-23T18:28:36.026Z,6.20
2019-05-23T18:31:11.337Z,6.37
2019-05-23T18:33:41.986Z,8.77
2019-05-23T18:36:11.418Z,7.17
2019-05-23T18:38:40.602Z,8.30
2019-05-23T18:41:10.001Z,7.47
2019-05-23T18:43:39.129Z,8.40
2019-05-23T18:46:13.650Z,7.93
2019-05-23T18:48:42.766Z,7.23
2019-05-23T18:51:11.778Z,10.00
2019-05-23T18:53:41.331Z,6.50
2019-05-23T18:56:10.555Z,6.23
2019-05-23T18:58:39.763Z,6.23
2019-05-23T19:01:13.933Z,8.77
2019-05-23T19:03:43.674Z,7.37
2019-05-23T19:06:12.815Z,8.37
2019-05-23T19:08:42.294Z,8.37
2019-05-23T19:11:20.825Z,6.37
2019-05-23T19:13:42.150Z,8.20
2019-05-23T19:16:11.225Z,7.17
2019-05-23T19:18:40.615Z,6.33
2019-05-23T19:21:11.567Z,8.07
2019-05-23T19:23:41.159Z,8.07
2019-05-23T19:26:10.455Z,9.20
2019-05-23T19:28:40.546Z,8.93
2019-05-23T19:31:09.952Z,10.53
2019-05-23T19:33:40.582Z,10.53
2019-05-23T19:36:12.631Z,11.87
2019-05-23T19:38:41.679Z,10.10
2019-05-23T19:41:12.476Z,11.10
2019-05-23T19:43:42.423Z,12.07
2019-05-23T19:46:12.013Z,12.30
2019-05-23T19:48:42.915Z,11.10
2019-05-23T19:51:11.839Z,11.33
2019-05-23T19:53:41.390Z,11.33
2019-05-23T19:56:10.798Z,11.77
2019-05-23T19:58:39.931Z,11.93
2019-05-23T20:01:09.005Z,12.60
2019-05-23T20:03:38.636Z,12.67
2019-05-23T20:06:09.449Z,11.60
2019-05-23T20:08:39.632Z,12.37
2019-05-23T20:11:08.738Z,11.37
2019-05-23T20:13:38.180Z,11.83
2019-05-23T20:16:08.036Z,13.37
2019-05-23T20:18:37.201Z,11.27
2019-05-23T20:21:07.087Z,11.60
2019-05-23T20:23:36.165Z,11.30
2019-05-23T20:26:08.278Z,10.90
2019-05-23T20:28:39.799Z,12.17
2019-05-23T20:31:09.030Z,12.17
2019-05-23T20:33:38.286Z,11.57
2019-05-23T20:36:13.030Z,12.03
2019-05-23T20:38:42.506Z,12.63
2019-05-23T20:41:12.031Z,12.97
2019-05-23T20:43:41.204Z,11.67
2019-05-23T20:46:10.649Z,13.00
2019-05-23T20:48:40.470Z,14.00
2019-05-23T20:51:09.520Z,13.63
2019-05-23T20:53:38.566Z,13.80
2019-05-23T20:56:07.707Z,14.20
2019-05-23T20:58:36.724Z,14.17
2019-05-23T21:01:20.219Z,11.80
2019-05-23T21:03:50.359Z,12.37
2019-05-23T21:06:19.387Z,13.43
2019-05-23T21:08:48.339Z,14.10
2019-05-23T21:11:17.302Z,13.97
2019-05-23T21:13:46.360Z,13.53
2019-05-23T21:16:15.598Z,14.23
2019-05-23T21:18:44.959Z,17.30
2019-05-23T21:21:14.667Z,13.93
2019-05-23T21:23:43.635Z,14.20
2019-05-23T21:26:12.587Z,14.40
2019-05-23T21:28:42.052Z,17.37
2019-05-23T21:31:15.359Z,15.13
2019-05-23T21:33:44.388Z,15.07
2019-05-23T21:36:13.431Z,14.20
2019-05-23T21:38:42.494Z,15.50
2019-05-23T21:41:11.482Z,14.77
2019-05-23T21:43:41.596Z,18.10
2019-05-23T21:46:10.711Z,14.13
2019-05-23T21:48:39.763Z,14.23
2019-05-23T21:51:08.851Z,16.23
2019-05-23T21:53:37.905Z,14.17
2019-05-23T21:56:07.310Z,15.57
2019-05-23T21:58:36.429Z,15.00
2019-05-23T22:01:40.608Z,13.60
2019-05-23T22:04:37.804Z,12.17
2019-05-23T22:07:08.252Z,12.73
2019-05-23T22:09:37.621Z,11.83
2019-05-23T22:12:09.035Z,12.93
2019-05-23T22:14:38.488Z,13.90
2019-05-23T22:17:07.474Z,14.37
2019-05-23T22:19:36.524Z,13.87
2019-05-23T22:22:06.423Z,14.57
2019-05-23T22:24:35.729Z,15.07
2019-05-23T22:27:06.808Z,14.13
2019-05-23T22:29:35.845Z,14.93
2019-05-23T22:32:06.009Z,13.77
2019-05-23T22:34:52.809Z,13.30
2019-05-23T22:37:26.605Z,13.10
2019-05-23T22:39:55.663Z,13.83
2019-05-23T22:42:26.177Z,14.10
2019-05-23T22:44:55.159Z,13.70
2019-05-23T22:47:25.136Z,13.27
2019-05-23T22:49:54.301Z,13.40
2019-05-23T22:52:23.654Z,14.37
2019-05-23T22:54:52.689Z,13.87
2019-05-23T22:57:21.753Z,18.33
2019-05-23T22:59:50.798Z,13.97
2019-05-23T23:02:19.849Z,14.60
2019-05-23T23:04:48.885Z,14.50
2019-05-23T23:07:18.205Z,14.87
2019-05-23T23:09:47.747Z,15.10
2019-05-23T23:12:16.809Z,16.73
2019-05-23T23:14:45.786Z,16.73
2019-05-23T23:17:15.323Z,15.70
2019-05-23T23:19:44.321Z,15.33
2019-05-23T23:22:13.745Z,18.97
2019-05-23T23:24:43.090Z,16.23
2019-05-23T23:27:12.197Z,21.77
2019-05-23T23:29:41.341Z,16.50
2019-05-23T23:32:11.241Z,15.47
2019-05-23T23:34:40.977Z,15.87
2019-05-23T23:37:10.050Z,15.30
2019-05-23T23:39:39.163Z,15.47
2019-05-23T23:42:08.934Z,16.67
2019-05-23T23:44:37.067Z,14.30
2019-05-23T23:47:24.440Z,15.87
2019-05-23T23:50:11.847Z,14.53
2019-05-23T23:52:58.870Z,15.77
2019-05-23T23:55:45.486Z,16.23
2019-05-23T23:58:13.706Z,15.90
